Time;durP1;ratioP1;P1;durP2;ratioP2;P2;SDS_P1;SDS_P2;PMS_P1;PMS_P2;Temp;Humidity;BMP_temperature;BMP_pressure;BME280_temperature;BME280_humidity;BME280_pressure;Samples;Min_cycle;Max_cycle;Signal;HPM_P1;HPM_P2
2022/01/07 00:02:13;;;;;;;;;;;;;;;;;;5015076;28;19917;-22
2022/01/07 00:04:40;;;;;;;;;;;;;;;;;;5015377;28;20016;-22
2022/01/07 00:07:06;;;;;;;;;;;;;;;;;;5015688;28;19909;-22
2022/01/07 00:09:31;;;;;;;;;;;;;;;;;;5015364;28;19920;-22
2022/01/07 00:11:58;;;;;;;;;;;;;;;;;;5015087;28;20353;-22
2022/01/07 00:14:23;;;;;;;;;;;;;;;;;;5015524;28;19919;-22
2022/01/07 00:16:50;;;;;;;;;;;;;;;;;;5015306;28;19909;-22
2022/01/07 00:19:17;;;;;;;;;;;;;;;;;;5015719;28;19917;-22
2022/01/07 00:21:43;;;;;;;;;;;;;;;;;;5015372;28;19921;-22
2022/01/07 00:24:09;;;;;;;;;;;;;;;;;;5015133;28;20348;-22
2022/01/07 00:26:35;;;;;;;;;;;;;;;;;;5015437;28;19913;-22
2022/01/07 00:29:01;;;;;;;;;;;;;;;;;;5015073;28;19914;-21
2022/01/07 00:31:27;;;;;;;;;;;;;;;;;;5015039;28;19913;-22
2022/01/07 00:33:53;;;;;;;;;;;;;;;;;;5014965;28;19909;-22
2022/01/07 00:36:19;;;;;;;;;;;;;;;;;;5014992;28;20000;-22
2022/01/07 00:38:45;;;;;;;;;;;;;;;;;;5014073;28;19952;-22
2022/01/07 00:41:11;;;;;;;;;;;;;;;;;;5015506;28;19914;-22
2022/01/07 00:43:37;;;;;;;;;;;;;;;;;;5015085;28;19914;-22
2022/01/07 00:46:03;;;;;;;;;;;;;;;;;;5014937;28;19913;-22
2022/01/07 00:48:29;;;;;;;;;;;;;;;;;;5014902;28;20242;-22
2022/01/07 00:50:55;;;;;;;;;;;;;;;;;;5014920;28;19928;-22
2022/01/07 00:53:21;;;;;;;;;;;;;;;;;;5014779;28;19913;-22
2022/01/07 00:55:47;;;;;;;;;;;;;;;;;;5014815;28;19968;-22
2022/01/07 00:58:13;;;;;;;;;;;;;;;;;;5015279;28;20292;-22
2022/01/07 01:00:39;;;;;;;;;;;;;;;;;;5015041;28;20043;-22
2022/01/07 01:03:05;;;;;;;;;;;;;;;;;;5014449;28;20301;-22
2022/01/07 01:05:32;;;;;;;;;;;;;;;;;;5014732;28;19928;-22
2022/01/07 01:07:58;;;;;;;;;;;;;;;;;;5014988;28;19913;-21
2022/01/07 01:10:25;;;;;;;;;;;;;;;;;;5014744;28;20268;-22
2022/01/07 01:12:51;;;;;;;;;;;;;;;;;;5014916;28;20299;-22
2022/01/07 01:15:17;;;;;;;;;;;;;;;;;;5015184;28;19992;-22
2022/01/07 01:17:43;;;;;;;;;;;;;;;;;;5014717;28;19909;-22
2022/01/07 01:20:09;;;;;;;;;;;;;;;;;;5014621;28;19921;-22
2022/01/07 01:22:35;;;;;;;;;;;;;;;;;;5016508;28;19921;-22
2022/01/07 01:25:01;;;;;;;;;;;;;;;;;;5018565;28;19913;-22
2022/01/07 01:27:27;;;;;;;;;;;;;;;;;;5018288;28;19933;-22
2022/01/07 01:29:53;;;;;;;;;;;;;;;;;;5018527;28;20307;-22
2022/01/07 01:32:20;;;;;;;;;;;;;;;;;;5018126;28;19914;-22
2022/01/07 01:34:46;;;;;;;;;;;;;;;;;;5018112;28;19914;-22
2022/01/07 01:37:12;;;;;;;;;;;;;;;;;;5018125;28;19928;-22
2022/01/07 01:39:38;;;;;;;;;;;;;;;;;;5018076;28;19972;-22
2022/01/07 01:42:04;;;;;;;;;;;;;;;;;;5018170;28;19930;-22
2022/01/07 01:44:30;;;;;;;;;;;;;;;;;;5017996;28;19920;-22
2022/01/07 01:46:56;;;;;;;;;;;;;;;;;;5018006;28;19906;-22
2022/01/07 01:49:22;;;;;;;;;;;;;;;;;;5017750;28;20016;-22
2022/01/07 01:51:48;;;;;;;;;;;;;;;;;;5017807;28;20356;-22
2022/01/07 01:54:14;;;;;;;;;;;;;;;;;;5018110;28;19913;-21
2022/01/07 01:56:41;;;;;;;;;;;;;;;;;;5018325;28;19906;-22
2022/01/07 01:59:07;;;;;;;;;;;;;;;;;;5017979;28;19949;-21
2022/01/07 02:01:33;;;;;;;;;;;;;;;;;;5018222;28;19945;-22
2022/01/07 02:03:59;;;;;;;;;;;;;;;;;;5017412;28;20288;-22
2022/01/07 02:06:25;;;;;;;;;;;;;;;;;;5017598;28;19923;-22
2022/01/07 02:08:51;;;;;;;;;;;;;;;;;;5018067;28;19916;-22
2022/01/07 02:11:17;;;;;;;;;;;;;;;;;;5017812;28;19931;-22
2022/01/07 02:13:45;;;;;;;;;;;;;;;;;;5017402;28;20421;-21
2022/01/07 02:16:11;;;;;;;;;;;;;;;;;;5017922;28;19964;-21
2022/01/07 02:18:37;;;;;;;;;;;;;;;;;;5017378;28;19917;-22
2022/01/07 02:21:03;;;;;;;;;;;;;;;;;;5017283;28;20012;-21
2022/01/07 02:23:32;;;;;;;;;;;;;;;;;;5017079;28;19917;-22
2022/01/07 02:25:58;;;;;;;;;;;;;;;;;;5017197;28;19909;-22
2022/01/07 02:28:24;;;;;;;;;;;;;;;;;;5017245;28;19920;-21
2022/01/07 02:30:50;;;;;;;;;;;;;;;;;;5017124;28;19979;-22
2022/01/07 02:33:16;;;;;;;;;;;;;;;;;;5016960;28;19910;-22
2022/01/07 02:35:45;;;;;;;;;;;;;;;;;;5015835;28;19913;-22
2022/01/07 02:38:11;;;;;;;;;;;;;;;;;;5017002;28;19910;-21
2022/01/07 02:40:37;;;;;;;;;;;;;;;;;;5016863;28;19913;-21
2022/01/07 02:43:03;;;;;;;;;;;;;;;;;;5016820;28;19918;-21
2022/01/07 02:45:29;;;;;;;;;;;;;;;;;;5017061;28;19913;-21
2022/01/07 02:47:57;;;;;;;;;;;;;;;;;;5016848;28;19963;-21
2022/01/07 02:50:23;;;;;;;;;;;;;;;;;;5016986;28;19913;-22
2022/01/07 02:52:49;;;;;;;;;;;;;;;;;;5016626;28;20260;-21
2022/01/07 02:55:15;;;;;;;;;;;;;;;;;;5016611;28;19913;-21
2022/01/07 02:57:41;;;;;;;;;;;;;;;;;;5016692;28;19917;-22
2022/01/07 03:00:07;;;;;;;;;;;;;;;;;;5017000;28;19963;-21
2022/01/07 03:02:33;;;;;;;;;;;;;;;;;;5016553;28;19921;-21
2022/01/07 03:04:59;;;;;;;;;;;;;;;;;;5017001;28;19910;-22
2022/01/07 03:07:25;;;;;;;;;;;;;;;;;;5016717;28;19916;-21
2022/01/07 03:09:51;;;;;;;;;;;;;;;;;;5016441;28;20297;-21
2022/01/07 03:12:17;;;;;;;;;;;;;;;;;;5016668;28;19905;-22
2022/01/07 03:14:43;;;;;;;;;;;;;;;;;;5016340;28;19913;-21
2022/01/07 03:17:09;;;;;;;;;;;;;;;;;;5015291;28;20352;-22
2022/01/07 03:19:35;;;;;;;;;;;;;;;;;;5016766;28;19964;-21
2022/01/07 03:22:01;;;;;;;;;;;;;;;;;;5016292;28;20293;-21
2022/01/07 03:24:27;;;;;;;;;;;;;;;;;;5016388;28;19948;-21
2022/01/07 03:26:53;;;;;;;;;;;;;;;;;;5016072;28;19913;-21
2022/01/07 03:29:19;;;;;;;;;;;;;;;;;;5016386;28;19917;-21
2022/01/07 03:31:45;;;;;;;;;;;;;;;;;;5015945;28;19914;-22
2022/01/07 03:34:11;;;;;;;;;;;;;;;;;;5016018;28;20312;-21
2022/01/07 03:36:37;;;;;;;;;;;;;;;;;;5016467;28;19913;-22
2022/01/07 03:39:03;;;;;;;;;;;;;;;;;;5015891;28;19914;-21
2022/01/07 03:41:29;;;;;;;;;;;;;;;;;;5016107;28;19997;-21
2022/01/07 03:43:55;;;;;;;;;;;;;;;;;;5015731;28;20335;-22
2022/01/07 03:46:21;;;;;;;;;;;;;;;;;;5014837;28;20004;-22
2022/01/07 03:48:47;;;;;;;;;;;;;;;;;;5016276;28;19925;-21
2022/01/07 03:51:13;;;;;;;;;;;;;;;;;;5015698;28;19913;-21
2022/01/07 03:53:40;;;;;;;;;;;;;;;;;;5015633;28;19920;-22
2022/01/07 03:56:06;;;;;;;;;;;;;;;;;;5015505;28;19967;-22
2022/01/07 03:58:32;;;;;;;;;;;;;;;;;;5014565;28;19917;-22
2022/01/07 04:00:58;;;;;;;;;;;;;;;;;;5015761;28;19971;-21
2022/01/07 04:03:24;;;;;;;;;;;;;;;;;;5015187;28;19921;-21
2022/01/07 04:05:50;;;;;;;;;;;;;;;;;;5015968;28;19913;-21
2022/01/07 04:08:16;;;;;;;;;;;;;;;;;;5015389;28;19918;-22
2022/01/07 04:10:42;;;;;;;;;;;;;;;;;;5015352;28;20415;-21
2022/01/07 04:13:08;;;;;;;;;;;;;;;;;;5015248;28;19917;-21
2022/01/07 04:15:34;;;;;;;;;;;;;;;;;;5015228;28;20047;-21
2022/01/07 04:18:00;;;;;;;;;;;;;;;;;;5015281;28;19976;-21
2022/01/07 04:20:26;;;;;;;;;;;;;;;;;;5015278;28;19913;-21
2022/01/07 04:22:52;;;;;;;;;;;;;;;;;;5015075;28;19918;-21
2022/01/07 04:25:18;;;;;;;;;;;;;;;;;;5015724;28;19917;-21
2022/01/07 04:27:44;;;;;;;;;;;;;;;;;;5015129;28;20336;-21
2022/01/07 04:30:10;;;;;;;;;;;;;;;;;;5015391;28;20261;-21
2022/01/07 04:32:37;;;;;;;;;;;;;;;;;;5015251;28;20032;-21
2022/01/07 04:35:03;;;;;;;;;;;;;;;;;;5015020;28;19988;-21
2022/01/07 04:37:29;;;;;;;;;;;;;;;;;;5014952;28;19909;-21
2022/01/07 04:39:55;;;;;;;;;;;;;;;;;;5014965;28;19975;-21
2022/01/07 04:42:21;;;;;;;;;;;;;;;;;;5014941;28;20264;-21
2022/01/07 04:44:47;;;;;;;;;;;;;;;;;;5014801;28;19920;-22
2022/01/07 04:47:13;;;;;;;;;;;;;;;;;;5014786;28;19913;-21
2022/01/07 04:49:39;;;;;;;;;;;;;;;;;;5014665;28;19909;-22
2022/01/07 04:52:05;;;;;;;;;;;;;;;;;;5014672;28;19927;-22
2022/01/07 04:54:31;;;;;;;;;;;;;;;;;;5014658;28;19910;-22
2022/01/07 04:56:57;;;;;;;;;;;;;;;;;;5016054;28;19913;-22
2022/01/07 04:59:23;;;;;;;;;;;;;;;;;;5018586;28;19913;-22
2022/01/07 05:01:49;;;;;;;;;;;;;;;;;;5018394;28;19909;-22
2022/01/07 05:04:15;;;;;;;;;;;;;;;;;;5018400;28;19926;-22
2022/01/07 05:06:44;;;;;;;;;;;;;;;;;;5018479;28;19909;-22
2022/01/07 05:09:10;;;;;;;;;;;;;;;;;;5018700;28;19971;-22
2022/01/07 05:11:36;;;;;;;;;;;;;;;;;;5017464;28;19910;-22
2022/01/07 05:14:02;;;;;;;;;;;;;;;;;;5018347;28;19913;-23
2022/01/07 05:16:29;;;;;;;;;;;;;;;;;;5018524;28;19920;-22
2022/01/07 05:18:55;;;;;;;;;;;;;;;;;;5018220;28;19933;-23
2022/01/07 05:21:21;;;;;;;;;;;;;;;;;;5017042;28;19909;-22
2022/01/07 05:23:47;;;;;;;;;;;;;;;;;;5017968;28;19928;-22
2022/01/07 05:26:13;;;;;;;;;;;;;;;;;;5018367;28;19967;-23
2022/01/07 05:28:39;;;;;;;;;;;;;;;;;;5018111;28;19921;-23
2022/01/07 05:31:05;;;;;;;;;;;;;;;;;;5017938;28;20011;-23
2022/01/07 05:33:31;;;;;;;;;;;;;;;;;;5018017;28;20335;-22
2022/01/07 05:35:57;;;;;;;;;;;;;;;;;;5017929;28;19913;-22
2022/01/07 05:38:23;;;;;;;;;;;;;;;;;;5017909;28;19956;-23
2022/01/07 05:40:49;;;;;;;;;;;;;;;;;;5017778;28;19913;-22
2022/01/07 05:43:15;;;;;;;;;;;;;;;;;;5017953;28;19925;-21
2022/01/07 05:45:44;;;;;;;;;;;;;;;;;;5016668;28;19967;-23
2022/01/07 05:48:10;;;;;;;;;;;;;;;;;;5017644;28;20355;-22
2022/01/07 05:50:36;;;;;;;;;;;;;;;;;;5017560;28;20375;-22
2022/01/07 05:53:02;;;;;;;;;;;;;;;;;;5017579;28;20011;-22
2022/01/07 05:55:28;;;;;;;;;;;;;;;;;;5017674;28;19909;-22
2022/01/07 05:57:54;;;;;;;;;;;;;;;;;;5017453;28;19920;-23
2022/01/07 06:00:20;;;;;;;;;;;;;;;;;;5017660;28;20360;-22
2022/01/07 06:02:46;;;;;;;;;;;;;;;;;;5015913;28;19922;-23
2022/01/07 06:05:12;;;;;;;;;;;;;;;;;;5017427;28;19914;-23
2022/01/07 06:07:38;;;;;;;;;;;;;;;;;;5017004;28;20311;-22
2022/01/07 06:10:04;;;;;;;;;;;;;;;;;;5016577;28;20376;-23
2022/01/07 06:12:30;;;;;;;;;;;;;;;;;;5016998;28;19927;-23
2022/01/07 06:14:57;;;;;;;;;;;;;;;;;;5016968;28;19925;-22
2022/01/07 06:17:23;;;;;;;;;;;;;;;;;;5016980;28;19910;-23
2022/01/07 06:19:49;;;;;;;;;;;;;;;;;;5017367;28;19913;-22
2022/01/07 06:22:15;;;;;;;;;;;;;;;;;;5016601;28;20005;-22
2022/01/07 06:24:41;;;;;;;;;;;;;;;;;;5017470;28;19944;-22
2022/01/07 06:27:07;;;;;;;;;;;;;;;;;;5016803;28;19996;-22
2022/01/07 06:29:33;;;;;;;;;;;;;;;;;;5016627;28;19928;-23
2022/01/07 06:32:00;;;;;;;;;;;;;;;;;;5016662;28;19913;-22
2022/01/07 06:34:27;;;;;;;;;;;;;;;;;;5016781;28;20237;-22
2022/01/07 06:36:53;;;;;;;;;;;;;;;;;;5017201;28;19917;-23
2022/01/07 06:39:22;;;;;;;;;;;;;;;;;;5016732;28;20233;-23
2022/01/07 06:41:51;;;;;;;;;;;;;;;;;;5016196;28;19940;-22
2022/01/07 06:44:21;;;;;;;;;;;;;;;;;;5016418;28;19953;-21
2022/01/07 06:46:51;;;;;;;;;;;;;;;;;;5016665;28;20382;-22
2022/01/07 06:49:19;;;;;;;;;;;;;;;;;;5016476;28;19917;-21
2022/01/07 06:51:46;;;;;;;;;;;;;;;;;;5016350;28;19914;-22
2022/01/07 06:54:12;;;;;;;;;;;;;;;;;;5015982;28;19991;-22
2022/01/07 06:56:38;;;;;;;;;;;;;;;;;;5016270;28;19913;-22
2022/01/07 06:59:04;;;;;;;;;;;;;;;;;;5016023;28;19920;-23
2022/01/07 07:01:30;;;;;;;;;;;;;;;;;;5015963;28;19913;-23
2022/01/07 07:03:57;;;;;;;;;;;;;;;;;;5015764;28;19932;-23
2022/01/07 07:06:24;;;;;;;;;;;;;;;;;;5016195;28;19982;-22
2022/01/07 07:08:50;;;;;;;;;;;;;;;;;;5016428;28;19983;-21
2022/01/07 07:11:16;;;;;;;;;;;;;;;;;;5015928;28;19913;-23
2022/01/07 07:13:42;;;;;;;;;;;;;;;;;;5015600;28;20317;-23
2022/01/07 07:16:08;;;;;;;;;;;;;;;;;;5015245;28;19914;-22
2022/01/07 07:18:37;;;;;;;;;;;;;;;;;;5015630;28;20027;-24
2022/01/07 07:21:03;;;;;;;;;;;;;;;;;;5014100;28;19971;-23
2022/01/07 07:23:29;;;;;;;;;;;;;;;;;;5015471;28;19913;-23
2022/01/07 07:25:59;;;;;;;;;;;;;;;;;;5014708;28;20296;-23
2022/01/07 07:28:27;;;;;;;;;;;;;;;;;;5015141;28;20000;-21
2022/01/07 07:30:57;;;;;;;;;;;;;;;;;;5014874;28;20008;-23
2022/01/07 07:38:34;;;;;;;;;;;;;;;;;;5015453;28;20235;-23
2022/01/07 07:41:01;;;;;;;;;;;;;;;;;;5015326;28;20000;-22
2022/01/07 07:43:27;;;;;;;;;;;;;;;;;;5015367;28;19914;-22
2022/01/07 07:45:53;;;;;;;;;;;;;;;;;;5015619;28;19937;-23
2022/01/07 07:48:21;;;;;;;;;;;;;;;;;;5015602;28;19913;-22
2022/01/07 07:50:48;;;;;;;;;;;;;;;;;;5015336;28;20000;-21
2022/01/07 07:53:16;;;;;;;;;;;;;;;;;;5015463;28;19913;-22
2022/01/07 07:55:48;;;;;;;;;;;;;;;;;;5015740;28;19963;-23
2022/01/07 07:58:16;;;;;;;;;;;;;;;;;;5015569;28;19914;-22
2022/01/07 08:00:42;;;;;;;;;;;;;;;;;;5015286;28;19920;-23
2022/01/07 08:03:08;;;;;;;;;;;;;;;;;;5014480;28;19933;-22
2022/01/07 08:05:34;;;;;;;;;;;;;;;;;;5014474;28;20004;-23
2022/01/07 08:08:02;;;;;;;;;;;;;;;;;;5014982;28;19953;-23
2022/01/07 08:10:28;;;;;;;;;;;;;;;;;;5014725;28;19987;-22
2022/01/07 08:18:22;;;;;;;;;;;;;;;;;;5014604;28;19925;-22
2022/01/07 08:20:51;;;;;;;;;;;;;;;;;;5014437;28;20375;-22
2022/01/07 08:23:17;;;;;;;;;;;;;;;;;;5014422;28;19913;-22
2022/01/07 08:25:43;;;;;;;;;;;;;;;;;;5013893;28;19944;-23
2022/01/07 08:28:11;;;;;;;;;;;;;;;;;;5014614;28;19949;-22
2022/01/07 08:31:00;;;;;;;;;;;;;;;;;;5014513;28;20423;-22
2022/01/07 08:36:12;;;;;;;;;;;;;;;;;;5014749;28;19940;-22
2022/01/07 08:38:38;;;;;;;;;;;;;;;;;;5014566;28;19909;-22
2022/01/07 08:41:04;;;;;;;;;;;;;;;;;;5014538;28;19914;-22
2022/01/07 08:43:30;;;;;;;;;;;;;;;;;;5014164;28;19917;-22
2022/01/07 08:48:47;;;;;;;;;;;;;;;;;;5014511;28;19917;-22
2022/01/07 08:51:16;;;;;;;;;;;;;;;;;;5014407;28;20038;-22
2022/01/07 08:53:58;;;;;;;;;;;;;;;;;;5014164;28;20260;-22
2022/01/07 08:56:27;;;;;;;;;;;;;;;;;;5014305;28;19964;-22
2022/01/07 08:58:54;;;;;;;;;;;;;;;;;;5014550;28;19921;-23
2022/01/07 09:01:21;;;;;;;;;;;;;;;;;;5013230;28;19924;-22
2022/01/07 09:03:53;;;;;;;;;;;;;;;;;;5013978;28;19983;-21
2022/01/07 09:14:42;;;;;;;;;;;;;;;;;;5013448;28;19941;-18
2022/01/07 09:17:13;;;;;;;;;;;;;;;;;;5014490;28;19913;-19
2022/01/07 09:19:39;;;;;;;;;;;;;;;;;;5014888;28;19967;-19
2022/01/07 09:22:05;;;;;;;;;;;;;;;;;;5014105;28;19963;-19
2022/01/07 09:27:24;;;;;;;;;;;;;;;;;;5014357;28;20287;-19
2022/01/07 09:29:50;;;;;;;;;;;;;;;;;;5014375;28;19920;-18
2022/01/07 09:32:17;;;;;;;;;;;;;;;;;;5014362;28;20000;-19
2022/01/07 09:34:53;;;;;;;;;;;;;;;;;;5014809;28;19913;-19
2022/01/07 09:37:22;;;;;;;;;;;;;;;;;;5014296;28;19996;-18
2022/01/07 09:39:48;;;;;;;;;;;;;;;;;;5014699;28;19914;-19
2022/01/07 09:45:05;;;;;;;;;;;;;;;;;;5017927;28;19924;-19
2022/01/07 09:47:35;;;;;;;;;;;;;;;;;;5017816;28;19974;-19
2022/01/07 09:50:01;;;;;;;;;;;;;;;;;;5017672;28;19919;-19
2022/01/07 09:55:19;;;;;;;;;;;;;;;;;;5017529;28;19924;-19
2022/01/07 09:57:47;;;;;;;;;;;;;;;;;;5018137;28;19920;-20
2022/01/07 10:00:13;;;;;;;;;;;;;;;;;;5017126;28;20021;-20
2022/01/07 10:02:41;;;;;;;;;;;;;;;;;;5017228;28;19917;-20
2022/01/07 10:05:07;;;;;;;;;;;;;;;;;;5017026;28;19937;-19
2022/01/07 10:07:33;;;;;;;;;;;;;;;;;;5017305;28;20208;-19
2022/01/07 10:10:02;;;;;;;;;;;;;;;;;;5016960;28;19919;-20
2022/01/07 10:12:31;;;;;;;;;;;;;;;;;;5016722;28;19909;-20
2022/01/07 10:14:57;;;;;;;;;;;;;;;;;;5017312;28;19918;-20
2022/01/07 10:17:23;;;;;;;;;;;;;;;;;;5016798;28;19921;-20
2022/01/07 10:19:49;;;;;;;;;;;;;;;;;;5016734;28;19949;-20
2022/01/07 10:22:16;;;;;;;;;;;;;;;;;;5016886;28;20256;-19
2022/01/07 10:27:26;;;;;;;;;;;;;;;;;;5016982;28;20355;-19
2022/01/07 10:29:53;;;;;;;;;;;;;;;;;;5015578;28;20208;-19
2022/01/07 10:32:19;;;;;;;;;;;;;;;;;;5016428;28;20252;-19
2022/01/07 10:34:45;;;;;;;;;;;;;;;;;;5016381;28;20253;-19
2022/01/07 10:37:11;;;;;;;;;;;;;;;;;;5016595;28;19924;-19
2022/01/07 10:39:39;;;;;;;;;;;;;;;;;;5017205;28;20043;-19
2022/01/07 10:42:05;;;;;;;;;;;;;;;;;;5016536;28;20287;-20
2022/01/07 10:44:36;;;;;;;;;;;;;;;;;;5016892;28;19924;-20
2022/01/07 10:47:02;;;;;;;;;;;;;;;;;;5017041;28;19914;-20
2022/01/07 10:49:31;;;;;;;;;;;;;;;;;;5016925;28;19913;-20
2022/01/07 10:51:57;;;;;;;;;;;;;;;;;;5016499;28;20363;-18
2022/01/07 10:57:14;;;;;;;;;;;;;;;;;;5016866;28;19925;-19
2022/01/07 10:59:40;;;;;;;;;;;;;;;;;;5016343;28;19972;-20
2022/01/07 11:02:06;;;;;;;;;;;;;;;;;;5016249;28;19909;-19
2022/01/07 11:07:17;;;;;;;;;;;;;;;;;;5016215;28;19916;-20
2022/01/07 11:09:44;;;;;;;;;;;;;;;;;;5016280;28;19924;-19
2022/01/07 11:12:11;;;;;;;;;;;;;;;;;;5016285;28;19920;-20
2022/01/07 11:14:37;;;;;;;;;;;;;;;;;;5015973;28;19921;-20
2022/01/07 11:19:54;;;;;;;;;;;;;;;;;;5016098;28;19979;-19
2022/01/07 11:22:22;;;;;;;;;;;;;;;;;;5015871;28;19967;-19
2022/01/07 11:24:50;;;;;;;;;;;;;;;;;;5016076;28;19917;-19
2022/01/07 11:27:22;;;;;;;;;;;;;;;;;;5016175;28;19909;-19
2022/01/07 11:29:54;;;;;;;;;;;;;;;;;;5016110;28;19936;-20
2022/01/07 11:32:23;;;;;;;;;;;;;;;;;;5015817;28;20240;-20
2022/01/07 11:34:55;;;;;;;;;;;;;;;;;;5016304;28;19914;-20
2022/01/07 11:37:22;;;;;;;;;;;;;;;;;;5015767;28;20303;-18
2022/01/07 11:39:52;;;;;;;;;;;;;;;;;;5015651;28;19975;-19
2022/01/07 11:42:20;;;;;;;;;;;;;;;;;;5015877;28;20003;-20
2022/01/07 11:44:46;;;;;;;;;;;;;;;;;;5015493;28;19914;-20
2022/01/07 11:47:13;;;;;;;;;;;;;;;;;;5015549;28;19914;-18
2022/01/07 11:49:39;;;;;;;;;;;;;;;;;;5015955;28;19967;-21
2022/01/07 11:52:05;;;;;;;;;;;;;;;;;;5015438;28;19910;-20
2022/01/07 11:54:33;;;;;;;;;;;;;;;;;;5015593;28;20237;-19
2022/01/07 11:57:03;;;;;;;;;;;;;;;;;;5016138;28;19932;-19
2022/01/07 11:59:36;;;;;;;;;;;;;;;;;;5015560;28;19914;-19
2022/01/07 12:02:05;;;;;;;;;;;;;;;;;;5014637;28;19913;-18
2022/01/07 12:04:31;;;;;;;;;;;;;;;;;;5014183;28;19929;-18
2022/01/07 12:06:59;;;;;;;;;;;;;;;;;;5014344;28;20316;-19
2022/01/07 12:09:27;;;;;;;;;;;;;;;;;;5015033;28;20344;-19
2022/01/07 12:11:55;;;;;;;;;;;;;;;;;;5015460;28;19909;-19
2022/01/07 12:14:21;;;;;;;;;;;;;;;;;;4941482;28;19927;-19
2022/01/07 12:16:49;;;;;;;;;;;;;;;;;;5015087;28;19909;-18
2022/01/07 12:19:18;;;;;;;;;;;;;;;;;;5013774;28;19913;-21
2022/01/07 12:21:44;;;;;;;;;;;;;;;;;;5014704;28;19956;-20
2022/01/07 12:24:10;;;;;;;;;;;;;;;;;;5014639;28;19925;-18
2022/01/07 12:26:38;;;;;;;;;;;;;;;;;;5014774;28;19921;-20
2022/01/07 12:29:07;;;;;;;;;;;;;;;;;;5014787;28;19913;-20
2022/01/07 12:31:33;;;;;;;;;;;;;;;;;;5015226;28;19936;-19
2022/01/07 12:34:02;;;;;;;;;;;;;;;;;;5014539;28;19925;-20
2022/01/07 12:36:28;;;;;;;;;;;;;;;;;;5015342;28;20005;-20
2022/01/07 12:38:54;;;;;;;;;;;;;;;;;;5015008;28;19917;-20
2022/01/07 12:47:02;;;;;;;;;;;;;;;;;;5014958;28;19928;-20
2022/01/07 12:54:59;;;;;;;;;;;;;;;;;;3490784;28;21757;-27
2022/01/07 12:57:26;;;;;;;;;;;;;;;;;;5014334;28;19972;-27
2022/01/07 12:59:52;;;;;;;;;;;;;;;;;;5014770;28;19914;-27
2022/01/07 13:02:18;;;;;;;;;;;;;;;;;;5013089;28;20308;-27
2022/01/07 13:04:44;;;;;;;;;;;;;;;;;;5014420;28;20351;-26
2022/01/07 13:07:11;;;;;;;;;;;;;;;;;;5014655;28;19909;-27
2022/01/07 13:09:37;;;;;;;;;;;;;;;;;;5014637;28;19918;-27
2022/01/07 13:12:03;;;;;;;;;;;;;;;;;;5014725;28;20049;-27
2022/01/07 13:14:29;;;;;;;;;;;;;;;;;;5014414;28;20378;-26
2022/01/07 13:16:56;;;;;;;;;;;;;;;;;;5014651;28;19910;-27
2022/01/07 13:19:22;;;;;;;;;;;;;;;;;;5016552;28;20048;-26
2022/01/07 13:21:50;;;;;;;;;;;;;;;;;;5017107;28;20322;-27
2022/01/07 13:24:16;;;;;;;;;;;;;;;;;;5018359;28;19979;-27
2022/01/07 13:26:47;;;;;;;;;;;;;;;;;;5018329;28;19985;-26
2022/01/07 13:29:13;;;;;;;;;;;;;;;;;;5017123;28;19913;-26
2022/01/07 13:34:24;;;;;;;;;;;;;;;;;;5017848;28;20057;-24
2022/01/07 13:36:51;;;;;;;;;;;;;;;;;;5018042;28;19915;-24
2022/01/07 13:39:17;;;;;;;;;;;;;;;;;;5017789;28;19910;-26
2022/01/07 13:41:43;;;;;;;;;;;;;;;;;;5017918;28;19913;-26
2022/01/07 13:44:10;;;;;;;;;;;;;;;;;;5017988;28;19983;-27
2022/01/07 13:46:37;;;;;;;;;;;;;;;;;;5017751;28;19909;-28
2022/01/07 13:49:03;;;;;;;;;;;;;;;;;;5017492;28;20363;-27
2022/01/07 13:51:29;;;;;;;;;;;;;;;;;;5017676;28;19917;-28
2022/01/07 13:53:55;;;;;;;;;;;;;;;;;;5016277;28;19909;-27
2022/01/07 13:56:22;;;;;;;;;;;;;;;;;;5016944;28;20264;-30
2022/01/07 13:58:48;;;;;;;;;;;;;;;;;;5015893;28;19928;-27
2022/01/07 14:01:14;;;;;;;;;;;;;;;;;;5017265;28;20320;-27
2022/01/07 14:03:40;;;;;;;;;;;;;;;;;;5016897;28;19976;-27
2022/01/07 14:06:06;;;;;;;;;;;;;;;;;;5017186;28;19964;-27
2022/01/07 14:08:32;;;;;;;;;;;;;;;;;;5017428;28;19910;-27
2022/01/07 14:10:58;;;;;;;;;;;;;;;;;;5016430;28;19940;-28
2022/01/07 14:13:24;;;;;;;;;;;;;;;;;;5016974;28;19909;-27
2022/01/07 14:15:52;;;;;;;;;;;;;;;;;;5015788;28;19964;-27
2022/01/07 14:18:18;;;;;;;;;;;;;;;;;;5016843;28;19989;-27
2022/01/07 14:20:44;;;;;;;;;;;;;;;;;;5016613;28;20328;-27
2022/01/07 14:23:10;;;;;;;;;;;;;;;;;;5016570;28;19967;-27
2022/01/07 14:25:36;;;;;;;;;;;;;;;;;;5016878;28;19925;-27
2022/01/07 14:28:02;;;;;;;;;;;;;;;;;;5016590;28;20342;-27
2022/01/07 14:30:28;;;;;;;;;;;;;;;;;;5015815;28;20011;-27
2022/01/07 14:32:55;;;;;;;;;;;;;;;;;;5016830;28;19913;-27
2022/01/07 14:35:21;;;;;;;;;;;;;;;;;;5016715;28;19914;-27
2022/01/07 14:37:47;;;;;;;;;;;;;;;;;;5016628;28;19914;-27
2022/01/07 14:40:13;;;;;;;;;;;;;;;;;;5016709;28;19916;-27
2022/01/07 14:42:39;;;;;;;;;;;;;;;;;;5015450;28;19921;-27
2022/01/07 14:45:05;;;;;;;;;;;;;;;;;;5017684;28;20004;-27
2022/01/07 14:47:31;;;;;;;;;;;;;;;;;;5015537;28;19968;-27
2022/01/07 14:49:58;;;;;;;;;;;;;;;;;;5016709;28;19913;-27
2022/01/07 14:52:25;;;;;;;;;;;;;;;;;;5015504;28;19913;-27
2022/01/07 14:54:51;;;;;;;;;;;;;;;;;;5016484;28;20316;-27
2022/01/07 14:57:17;;;;;;;;;;;;;;;;;;5016231;28;20252;-27
2022/01/07 14:59:43;;;;;;;;;;;;;;;;;;5015124;28;19932;-27
2022/01/07 15:02:09;;;;;;;;;;;;;;;;;;5016023;28;19917;-27
2022/01/07 15:04:36;;;;;;;;;;;;;;;;;;5016353;28;20000;-27
2022/01/07 15:07:02;;;;;;;;;;;;;;;;;;5016072;28;19909;-27
2022/01/07 15:09:28;;;;;;;;;;;;;;;;;;5014863;28;19996;-27
2022/01/07 15:11:55;;;;;;;;;;;;;;;;;;5015813;28;19944;-27
2022/01/07 15:14:21;;;;;;;;;;;;;;;;;;5016172;28;19913;-27
2022/01/07 15:16:47;;;;;;;;;;;;;;;;;;5015798;28;19952;-27
2022/01/07 15:19:13;;;;;;;;;;;;;;;;;;5015805;28;20322;-27
2022/01/07 15:21:39;;;;;;;;;;;;;;;;;;5015635;28;19951;-27
2022/01/07 15:24:07;;;;;;;;;;;;;;;;;;5015655;28;20316;-27
2022/01/07 15:26:34;;;;;;;;;;;;;;;;;;5015456;28;19975;-27
2022/01/07 15:29:00;;;;;;;;;;;;;;;;;;5015903;28;19996;-27
2022/01/07 15:31:26;;;;;;;;;;;;;;;;;;5015989;28;20293;-27
2022/01/07 15:33:52;;;;;;;;;;;;;;;;;;5014726;28;19967;-27
2022/01/07 15:36:18;;;;;;;;;;;;;;;;;;5015799;28;20267;-27
2022/01/07 15:38:44;;;;;;;;;;;;;;;;;;5015722;28;19909;-27
2022/01/07 15:41:10;;;;;;;;;;;;;;;;;;5015765;28;19914;-26
2022/01/07 15:43:36;;;;;;;;;;;;;;;;;;5015514;28;19972;-27
2022/01/07 15:46:04;;;;;;;;;;;;;;;;;;5015318;28;19913;-27
2022/01/07 15:48:31;;;;;;;;;;;;;;;;;;5015547;28;20221;-27
2022/01/07 15:50:57;;;;;;;;;;;;;;;;;;5015369;28;19991;-27
2022/01/07 15:53:23;;;;;;;;;;;;;;;;;;5015228;28;20325;-27
2022/01/07 15:55:49;;;;;;;;;;;;;;;;;;5013377;28;19918;-27
2022/01/07 15:58:15;;;;;;;;;;;;;;;;;;5014488;28;19910;-27
2022/01/07 16:00:41;;;;;;;;;;;;;;;;;;5014675;28;19955;-26
2022/01/07 16:03:08;;;;;;;;;;;;;;;;;;5014336;28;19921;-27
2022/01/07 16:05:34;;;;;;;;;;;;;;;;;;5014567;28;20033;-27
2022/01/07 16:08:00;;;;;;;;;;;;;;;;;;5014357;28;20009;-27
2022/01/07 16:10:26;;;;;;;;;;;;;;;;;;5014187;28;19921;-27
2022/01/07 16:12:52;;;;;;;;;;;;;;;;;;5013069;28;19913;-28
2022/01/07 16:15:18;;;;;;;;;;;;;;;;;;5014452;28;20008;-28
2022/01/07 16:17:44;;;;;;;;;;;;;;;;;;5014174;28;19909;-28
2022/01/07 16:20:10;;;;;;;;;;;;;;;;;;5014283;28;19918;-28
2022/01/07 16:22:37;;;;;;;;;;;;;;;;;;5014512;28;19913;-27
2022/01/07 16:25:04;;;;;;;;;;;;;;;;;;5014802;28;20281;-28
2022/01/07 16:27:30;;;;;;;;;;;;;;;;;;5015131;28;19909;-26
2022/01/07 16:29:56;;;;;;;;;;;;;;;;;;5014003;28;19917;-27
2022/01/07 16:32:22;;;;;;;;;;;;;;;;;;5013864;28;20340;-27
2022/01/07 16:34:48;;;;;;;;;;;;;;;;;;5015091;28;19921;-27
2022/01/07 16:37:14;;;;;;;;;;;;;;;;;;5014931;28;20032;-27
2022/01/07 16:39:40;;;;;;;;;;;;;;;;;;5015066;28;19914;-27
2022/01/07 16:42:06;;;;;;;;;;;;;;;;;;5014599;28;19914;-27
2022/01/07 16:44:32;;;;;;;;;;;;;;;;;;5013361;28;19992;-27
2022/01/07 16:46:58;;;;;;;;;;;;;;;;;;5014666;28;20000;-27
2022/01/07 16:49:24;;;;;;;;;;;;;;;;;;5014704;28;20420;-27
2022/01/07 16:51:50;;;;;;;;;;;;;;;;;;5015281;28;19914;-27
2022/01/07 16:54:16;;;;;;;;;;;;;;;;;;5017852;28;20393;-27
2022/01/07 16:56:42;;;;;;;;;;;;;;;;;;5018168;28;20025;-27
2022/01/07 16:59:08;;;;;;;;;;;;;;;;;;5017329;28;19945;-28
2022/01/07 17:01:34;;;;;;;;;;;;;;;;;;5018244;28;19956;-27
2022/01/07 17:04:00;;;;;;;;;;;;;;;;;;5018048;28;20339;-27
2022/01/07 17:06:26;;;;;;;;;;;;;;;;;;5018455;28;19914;-27
2022/01/07 17:08:52;;;;;;;;;;;;;;;;;;5018382;28;19924;-27
2022/01/07 17:11:18;;;;;;;;;;;;;;;;;;5018243;28;19914;-27
2022/01/07 17:13:44;;;;;;;;;;;;;;;;;;5018491;28;20323;-27
2022/01/07 17:16:10;;;;;;;;;;;;;;;;;;5017163;28;19913;-27
2022/01/07 17:18:36;;;;;;;;;;;;;;;;;;5016602;28;19966;-27
2022/01/07 17:21:02;;;;;;;;;;;;;;;;;;5017985;28;20008;-27
2022/01/07 17:23:28;;;;;;;;;;;;;;;;;;5017889;28;19943;-27
2022/01/07 17:25:54;;;;;;;;;;;;;;;;;;5018101;28;20360;-27
2022/01/07 17:28:20;;;;;;;;;;;;;;;;;;5018376;28;19940;-27
2022/01/07 17:30:46;;;;;;;;;;;;;;;;;;5018095;28;20398;-27
2022/01/07 17:33:12;;;;;;;;;;;;;;;;;;5018366;28;20249;-27
2022/01/07 17:35:38;;;;;;;;;;;;;;;;;;5016917;28;19925;-28
2022/01/07 17:38:04;;;;;;;;;;;;;;;;;;5017865;28;19913;-27
2022/01/07 17:40:30;;;;;;;;;;;;;;;;;;5017519;28;19924;-27